Tulsa, OK

4:00 PM CDT on September 24, 2016 (GMT -0500)
Tulsa International | | Change Station

Elev 676 ft 36.20 °N, 95.89 °W | Updated 7 minutes ago

Partly Cloudy
Partly Cloudy
91 °F
Feels Like 95 °F
N
17
Wind Variable Wind from South
Gusts 29 mph

Today
High -- | Low -- °F
--% Chance of Precip.
Yesterday
High -- | Low -- °F
Precip. -- in
Pressure 29.87 in
Visibility 10.0 miles
Clouds Few 5000 ft
Few 11000 ft
Few 25000 ft
Heat Index 95 °F
Dew Point 68 °F
Humidity 47%
Rainfall 0.00 in
Snow Depth Not available.
7:13 AM 7:16 PM
Waning Crescent, 34% visible
METAR KTUL 242053Z 18015G25KT 10SM FEW050 FEW110 FEW250 33/20 A2990 RMK AO2 SLP115 T03280200 56030 $
Pressure 29.87 in
Visibility 10.0 miles
Clouds Few 5000 ft
Few 11000 ft
Few 25000 ft
Heat Index 95 °F
Dew Point 68 °F
Humidity 47%
Rainfall 0.00 in
Snow Depth Not available.
7:13 AM 7:16 PM
Waning Crescent, 34% visible
METAR KTUL 242053Z 18015G25KT 10SM FEW050 FEW110 FEW250 33/20 A2990 RMK AO2 SLP115 T03280200 56030 $

10-Day Weather Forecast

Almanac

Astronomy

Sep. 24, 2016 Rise Set
Actual Time
Civil Twilight
Nautical Twilight
Astronomical Twilight
Moon
Length of Visible Light
Length of Day
Tomorrow will be .
, % of the Moon is Illuminated

Today's Extremes

State Highs State Lows

Community

WunderPhotos

Upload Photos

1,941,423 photos uploaded!

WunderBlog® & News

Nearby

Air Quality

  Air Quality AQ Index Pollutant
Not available.

Snow Depth

Station Depth Elevation

Earthquake Activity

City Distance Mag. Time & Date
Minimum magnitude displayed is 2.5.

Coastal Water Temperatures

Place Temperature

Stations

Nearby Weather Stations

Station Location Temp. Windchill Dew Point Humidity Wind Precip. Elev Updated Type
                   

Watches & Warnings

There are currently no watches in effect.